Time;durP1;ratioP1;P1;durP2;ratioP2;P2;SDS_P1;SDS_P2;PMS_P1;PMS_P2;Temp;Humidity;BMP_temperature;BMP_pressure;BME280_temperature;BME280_humidity;BME280_pressure;Samples;Min_cycle;Max_cycle;Signal;HPM_P1;HPM_P2
2023/01/13 00:02:07;;;;;;;;;;;;;;;2.13;73.94;92711.00;2071717;69;20044;-73
2023/01/13 00:04:33;;;;;;;;;;;;;;;2.13;73.73;92713.03;2071568;69;20139;-73
2023/01/13 00:06:58;;;;;;;;;;;;;;;2.19;73.35;92708.75;2068533;69;20231;-73
2023/01/13 00:09:24;;;;;;;;;;;;;;;2.22;73.05;92704.88;2071482;69;20109;-77
2023/01/13 00:11:49;;;;;;;;;;;;;;;2.18;72.62;92698.94;2071889;69;20151;-72
2023/01/13 00:14:15;;;;;;;;;;;;;;;2.15;72.62;92690.97;2068336;69;20190;-73
2023/01/13 00:16:41;;;;;;;;;;;;;;;2.17;72.71;92691.91;2071477;69;20046;-73
2023/01/13 00:19:06;;;;;;;;;;;;;;;2.16;72.43;92682.09;2071325;69;20098;-78
2023/01/13 00:21:32;;;;;;;;;;;;;;;2.00;73.37;92684.13;2071733;69;20048;-75
2023/01/13 00:23:57;;;;;;;;;;;;;;;1.97;73.16;92674.16;2068437;69;20051;-73
2023/01/13 00:26:25;;;;;;;;;;;;;;;1.95;73.33;92673.97;2068452;69;20496;-78
2023/01/13 00:28:54;;;;;;;;;;;;;;;1.97;73.45;92679.72;2071722;69;20048;-73
2023/01/13 00:31:20;;;;;;;;;;;;;;;1.96;72.67;92675.44;2068479;69;20062;-75
2023/01/13 00:33:47;;;;;;;;;;;;;;;2.01;72.91;92679.31;2065600;69;20088;-75
2023/01/13 00:36:14;;;;;;;;;;;;;;;2.06;72.83;92681.16;2071975;69;20085;-74
2023/01/13 00:38:41;;;;;;;;;;;;;;;1.80;73.18;92668.41;2071887;69;20045;-74
2023/01/13 00:41:14;;;;;;;;;;;;;;;1.87;73.54;92666.94;2071899;69;20045;-73
2023/01/13 00:43:40;;;;;;;;;;;;;;;1.99;73.20;92662.50;2071806;69;20044;-74
2023/01/13 00:46:07;;;;;;;;;;;;;;;2.08;72.96;92672.31;2071759;69;20134;-73
2023/01/13 00:48:33;;;;;;;;;;;;;;;2.12;72.67;92653.22;2071742;69;20060;-73
2023/01/13 00:50:59;;;;;;;;;;;;;;;2.17;72.39;92655.81;2071782;69;20048;-73
2023/01/13 00:53:25;;;;;;;;;;;;;;;2.04;72.30;92653.97;2065704;69;20457;-72
2023/01/13 00:56:01;;;;;;;;;;;;;;;1.90;73.03;92652.69;2071928;69;20040;-76
2023/01/13 00:58:26;;;;;;;;;;;;;;;2.14;72.03;92645.06;2071959;69;20044;-79
2023/01/13 01:00:53;;;;;;;;;;;;;;;2.15;71.70;92638.94;2071561;69;20089;-77
2023/01/13 01:03:19;;;;;;;;;;;;;;;2.04;72.07;92631.75;2068774;69;20136;-74
2023/01/13 01:05:45;;;;;;;;;;;;;;;2.04;71.37;92639.34;2068888;69;20127;-73
2023/01/13 01:08:12;;;;;;;;;;;;;;;2.27;70.21;92628.94;2068741;69;20114;-73
2023/01/13 01:10:37;;;;;;;;;;;;;;;1.80;72.42;92634.38;2068510;69;20040;-72
2023/01/13 01:13:02;;;;;;;;;;;;;;;1.96;71.86;92633.06;2068487;69;20049;-71
2023/01/13 01:15:28;;;;;;;;;;;;;;;2.02;71.51;92628.06;2067951;69;20091;-74
2023/01/13 01:17:53;;;;;;;;;;;;;;;2.01;71.50;92629.34;2068359;69;20062;-70
2023/01/13 01:20:19;;;;;;;;;;;;;;;1.58;72.81;92636.59;2067917;69;20473;-73
2023/01/13 01:22:44;;;;;;;;;;;;;;;1.72;72.71;92653.78;2068372;69;20080;-75
2023/01/13 01:25:09;;;;;;;;;;;;;;;1.59;71.76;92649.16;2064916;69;20081;-78
2023/01/13 01:27:36;;;;;;;;;;;;;;;1.92;71.63;92650.06;2068168;69;20160;-76
2023/01/13 01:30:02;;;;;;;;;;;;;;;1.83;71.17;92639.53;2064528;69;20061;-74
2023/01/13 01:32:27;;;;;;;;;;;;;;;1.59;72.04;92642.88;2068374;69;20454;-77
2023/01/13 01:34:53;;;;;;;;;;;;;;;1.76;71.33;92651.38;2068485;69;20053;-77
2023/01/13 01:37:18;;;;;;;;;;;;;;;1.44;73.17;92652.66;2068441;69;20049;-78
2023/01/13 01:39:43;;;;;;;;;;;;;;;1.59;72.36;92653.97;2068411;69;20033;-75
2023/01/13 01:45:00;;;;;;;;;;;;;;;1.51;72.69;92667.81;2068419;69;20055;-77
2023/01/13 01:47:26;;;;;;;;;;;;;;;1.52;71.91;92680.41;2068479;69;20080;-75
2023/01/13 01:49:52;;;;;;;;;;;;;;;1.53;71.61;92673.56;2066995;69;20052;-73
2023/01/13 01:52:20;;;;;;;;;;;;;;;1.36;72.43;92681.69;2071724;69;20087;-74
2023/01/13 01:54:49;;;;;;;;;;;;;;;1.23;72.39;92674.97;2071739;69;20094;-71
2023/01/13 01:57:18;;;;;;;;;;;;;;;1.38;72.15;92668.00;2071801;69;20053;-72
2023/01/13 01:59:44;;;;;;;;;;;;;;;1.39;71.77;92672.25;2068347;69;20478;-78
2023/01/13 02:02:10;;;;;;;;;;;;;;;1.38;71.42;92673.56;2071657;69;20503;-72
2023/01/13 02:04:38;;;;;;;;;;;;;;;0.94;72.92;92657.72;2068339;69;20167;-73
2023/01/13 02:07:04;;;;;;;;;;;;;;;0.99;73.96;92675.47;2068453;69;20041;-76
2023/01/13 02:09:30;;;;;;;;;;;;;;;1.19;72.68;92688.50;2071278;69;20037;-77
2023/01/13 02:14:40;;;;;;;;;;;;;;;1.16;72.49;92684.03;2065785;69;20036;-79
2023/01/13 02:17:05;;;;;;;;;;;;;;;1.29;71.92;92680.38;2071684;69;20064;-76
2023/01/13 02:19:31;;;;;;;;;;;;;;;1.28;71.65;92681.66;2071723;69;20110;-78
2023/01/13 02:22:02;;;;;;;;;;;;;;;1.38;71.80;92679.09;2068375;69;20059;-72
2023/01/13 02:24:52;;;;;;;;;;;;;;;1.34;71.40;92693.34;2071646;69;20044;-76
2023/01/13 02:27:39;;;;;;;;;;;;;;;1.36;71.47;92687.97;2068284;69;20484;-72
2023/01/13 02:32:51;;;;;;;;;;;;;;;1.25;72.32;92686.28;2071438;69;20056;-76
2023/01/13 02:35:20;;;;;;;;;;;;;;;1.25;72.51;92686.28;2071558;69;20047;-78
2023/01/13 02:37:45;;;;;;;;;;;;;;;1.22;73.05;92689.41;2071726;69;20142;-79
2023/01/13 02:40:17;;;;;;;;;;;;;;;1.35;72.83;92685.75;2071613;69;20088;-76
2023/01/13 02:45:50;;;;;;;;;;;;;;;1.21;72.49;92669.25;2071702;69;20045;-78
2023/01/13 02:48:17;;;;;;;;;;;;;;;1.11;73.25;92667.56;2071681;69;20071;-74
2023/01/13 02:50:46;;;;;;;;;;;;;;;1.06;73.67;92669.22;2071875;69;20045;-78
2023/01/13 02:53:16;;;;;;;;;;;;;;;1.21;73.03;92672.03;2071579;69;20079;-78
2023/01/13 02:55:45;;;;;;;;;;;;;;;1.18;72.85;92675.16;2072039;69;20125;-76
2023/01/13 02:58:13;;;;;;;;;;;;;;;1.31;73.20;92668.72;2071855;69;20051;-78
2023/01/13 03:00:40;;;;;;;;;;;;;;;1.34;72.70;92679.47;2065398;69;20483;-77
2023/01/13 03:03:06;;;;;;;;;;;;;;;1.22;73.09;92684.59;2071576;69;20071;-75
2023/01/13 03:05:32;;;;;;;;;;;;;;;0.48;75.94;92693.53;2071956;69;20052;-79
2023/01/13 03:07:57;;;;;;;;;;;;;;;0.69;76.23;92696.25;2071141;69;20490;-75
2023/01/13 03:10:22;;;;;;;;;;;;;;;0.86;75.36;92695.00;2071767;69;20037;-73
2023/01/13 03:13:14;;;;;;;;;;;;;;;1.06;74.97;92699.00;2071835;69;20136;-72
2023/01/13 03:15:58;;;;;;;;;;;;;;;1.11;74.19;92682.19;2068415;69;20045;-74
2023/01/13 03:18:44;;;;;;;;;;;;;;;1.10;74.33;92680.72;2065208;69;20469;-74
2023/01/13 03:21:33;;;;;;;;;;;;;;;1.19;73.78;92688.50;2069621;69;20041;-76
2023/01/13 03:24:02;;;;;;;;;;;;;;;1.01;74.42;92690.28;2071363;69;20582;-76
2023/01/13 03:26:46;;;;;;;;;;;;;;;1.10;74.54;92696.56;2071573;69;20049;-75
2023/01/13 03:29:12;;;;;;;;;;;;;;;1.02;73.71;92682.69;2068417;69;20053;-72
2023/01/13 03:31:42;;;;;;;;;;;;;;;1.04;74.39;92684.91;2070689;69;20118;-77
2023/01/13 03:34:18;;;;;;;;;;;;;;;0.99;74.37;92692.09;2071395;69;20045;-72
2023/01/13 03:36:45;;;;;;;;;;;;;;;1.02;73.81;92707.66;2070323;69;20044;-75
2023/01/13 03:39:14;;;;;;;;;;;;;;;0.93;74.40;92711.69;2069298;69;20052;-80
2023/01/13 03:41:44;;;;;;;;;;;;;;;0.97;73.53;92712.06;2070522;69;20045;-78
2023/01/13 03:44:35;;;;;;;;;;;;;;;1.08;73.81;92707.47;2069357;69;20169;-75
2023/01/13 03:47:04;;;;;;;;;;;;;;;1.00;74.28;92699.88;2068737;69;20435;-73
2023/01/13 03:49:36;;;;;;;;;;;;;;;0.81;74.25;92704.22;2066310;69;20421;-75
2023/01/13 03:52:04;;;;;;;;;;;;;;;0.72;75.78;92706.22;2070229;69;20044;-72
2023/01/13 03:54:32;;;;;;;;;;;;;;;0.92;74.31;92695.59;2070428;69;20114;-74
2023/01/13 03:57:00;;;;;;;;;;;;;;;0.95;74.71;92697.25;2065750;69;20485;-77
2023/01/13 03:59:30;;;;;;;;;;;;;;;0.97;73.48;92706.53;2062846;69;20069;-72
2023/01/13 04:02:01;;;;;;;;;;;;;;;1.09;73.54;92697.88;2065672;69;20045;-74
2023/01/13 04:04:33;;;;;;;;;;;;;;;1.11;73.70;92701.59;2065711;69;20417;-72
2023/01/13 04:07:08;;;;;;;;;;;;;;;1.07;73.79;92703.97;2069033;69;20045;-75
2023/01/13 04:09:47;;;;;;;;;;;;;;;1.01;73.39;92711.72;2068786;69;20037;-75
2023/01/13 04:12:22;;;;;;;;;;;;;;;1.05;73.85;92727.97;2068830;69;20160;-74
2023/01/13 04:14:48;;;;;;;;;;;;;;;0.91;74.41;92730.88;2068792;69;20049;-78
2023/01/13 04:17:14;;;;;;;;;;;;;;;0.65;76.45;92736.69;2068857;69;20056;-77
2023/01/13 04:19:40;;;;;;;;;;;;;;;0.76;75.42;92728.03;2068822;69;20045;-80
2023/01/13 04:22:05;;;;;;;;;;;;;;;0.93;75.04;92722.78;2068870;69;20056;-77
2023/01/13 04:24:31;;;;;;;;;;;;;;;0.89;74.24;92722.38;2068658;69;20135;-71
2023/01/13 04:26:57;;;;;;;;;;;;;;;0.77;73.94;92715.66;2068376;69;20163;-75
2023/01/13 04:29:22;;;;;;;;;;;;;;;0.80;74.27;92722.91;2068772;69;20053;-74
2023/01/13 04:31:48;;;;;;;;;;;;;;;0.69;75.25;92729.50;2068722;69;20132;-77
2023/01/13 04:34:13;;;;;;;;;;;;;;;0.32;75.44;92724.44;2068722;69;20052;-71
2023/01/13 04:36:38;;;;;;;;;;;;;;;0.50;75.42;92729.00;2068879;69;20060;-72
2023/01/13 04:39:04;;;;;;;;;;;;;;;0.67;75.03;92725.78;2068696;69;20485;-75
2023/01/13 04:44:13;;;;;;;;;;;;;;;0.71;74.79;92701.22;2068707;69;20045;-73
2023/01/13 04:46:39;;;;;;;;;;;;;;;0.60;74.59;92694.00;2068739;69;20041;-75
2023/01/13 04:49:04;;;;;;;;;;;;;;;0.62;74.27;92694.16;2068791;69;20037;-76
2023/01/13 04:51:30;;;;;;;;;;;;;;;0.50;75.18;92696.53;2065407;69;20487;-73
2023/01/13 04:53:55;;;;;;;;;;;;;;;0.59;74.40;92688.97;2068488;69;20205;-76
2023/01/13 04:56:21;;;;;;;;;;;;;;;0.57;73.94;92684.00;2068592;69;20053;-74
2023/01/13 04:58:46;;;;;;;;;;;;;;;0.58;74.04;92673.66;2068715;69;20068;-75
2023/01/13 05:01:11;;;;;;;;;;;;;;;0.12;77.36;92676.16;2068693;69;20149;-73
2023/01/13 05:03:37;;;;;;;;;;;;;;;0.29;76.18;92681.25;2068654;69;20114;-78
2023/01/13 05:06:02;;;;;;;;;;;;;;;0.32;76.76;92689.22;2068649;69;20477;-73
2023/01/13 05:08:28;;;;;;;;;;;;;;;0.33;76.31;92704.53;2068394;69;20084;-75
2023/01/13 05:10:53;;;;;;;;;;;;;;;0.05;78.13;92702.50;2065447;69;20110;-78
2023/01/13 05:18:47;;;;;;;;;;;;;;;0.04;79.31;92714.09;2065356;69;20057;-73
2023/01/13 05:25:20;;;;;;;;;;;;;;;0.20;78.60;92716.44;2068762;69;20142;-81
2023/01/13 05:26:42;;;;;;;;;;;;;;;0.31;77.18;92692.50;2068550;69;20045;-75
2023/01/13 05:29:08;;;;;;;;;;;;;;;0.14;77.97;92685.41;2068619;69;20041;-78
2023/01/13 05:31:33;;;;;;;;;;;;;;;0.26;77.53;92674.75;2068431;69;20045;-80
2023/01/13 05:33:59;;;;;;;;;;;;;;;0.30;77.06;92671.66;2068537;69;20037;-81
2023/01/13 05:36:24;;;;;;;;;;;;;;;0.29;76.35;92654.31;2068709;69;20459;-81
2023/01/13 05:38:50;;;;;;;;;;;;;;;-0.10;77.07;92649.81;2068343;69;20037;-81
2023/01/13 05:44:00;;;;;;;;;;;;;;;0.29;77.09;92634.19;2068375;69;20197;-81
2023/01/13 05:46:25;;;;;;;;;;;;;;;0.17;78.23;92634.47;2065138;69;20548;-78
2023/01/13 05:48:51;;;;;;;;;;;;;;;0.35;76.83;92640.28;2065230;69;20061;-81
2023/01/13 05:51:16;;;;;;;;;;;;;;;0.28;77.46;92644.53;2068565;69;20511;-76
2023/01/13 05:53:42;;;;;;;;;;;;;;;0.41;77.89;92652.72;2068410;69;20161;-75
2023/01/13 05:56:08;;;;;;;;;;;;;;;0.40;77.60;92644.94;2068571;69;20558;-76
2023/01/13 05:58:33;;;;;;;;;;;;;;;0.08;79.85;92651.59;2068423;69;20409;-77
2023/01/13 06:01:04;;;;;;;;;;;;;;;0.19;78.26;92664.41;2065251;69;20114;-81
2023/01/13 06:03:29;;;;;;;;;;;;;;;0.30;78.15;92672.38;2065208;69;20381;-79
2023/01/13 06:05:58;;;;;;;;;;;;;;;-0.14;78.93;92660.47;2068473;69;20541;-77
2023/01/13 06:08:24;;;;;;;;;;;;;;;-0.47;80.66;92664.81;2068368;69;20049;-81
2023/01/13 06:10:49;;;;;;;;;;;;;;;-0.05;80.21;92671.78;2068592;69;20049;-82
2023/01/13 06:13:15;;;;;;;;;;;;;;;0.09;78.94;92678.00;2065163;69;20048;-82
2023/01/13 06:15:40;;;;;;;;;;;;;;;0.18;78.48;92673.97;2068468;69;20403;-76
2023/01/13 06:18:05;;;;;;;;;;;;;;;0.28;78.04;92668.69;2068501;69;20500;-80
2023/01/13 06:20:31;;;;;;;;;;;;;;;0.23;77.65;92657.22;2065217;69;20045;-81
2023/01/13 06:22:57;;;;;;;;;;;;;;;0.23;77.45;92660.00;2068491;69;20041;-82
2023/01/13 06:25:23;;;;;;;;;;;;;;;0.26;77.55;92658.16;2068569;69;20061;-81
2023/01/13 06:27:48;;;;;;;;;;;;;;;0.27;77.65;92664.44;2068478;69;20474;-74
2023/01/13 06:30:13;;;;;;;;;;;;;;;0.29;78.20;92665.38;2068889;69;20158;-81
2023/01/13 06:32:43;;;;;;;;;;;;;;;0.40;76.83;92664.31;2068487;69;20149;-81
2023/01/13 06:35:11;;;;;;;;;;;;;;;0.43;77.23;92666.00;2068464;69;20146;-81
2023/01/13 06:37:36;;;;;;;;;;;;;;;0.27;77.68;92664.44;2068503;69;20134;-78
2023/01/13 06:40:05;;;;;;;;;;;;;;;0.41;77.71;92663.78;2068274;69;20049;-81
2023/01/13 06:45:17;;;;;;;;;;;;;;;0.54;77.55;92665.69;2065338;69;20072;-80
2023/01/13 06:47:42;;;;;;;;;;;;;;;0.61;77.30;92683.66;2068673;69;20041;-77
2023/01/13 06:50:08;;;;;;;;;;;;;;;0.12;78.37;92676.16;2068617;69;20040;-82
2023/01/13 06:52:34;;;;;;;;;;;;;;;0.31;78.54;92679.41;2068581;69;20114;-83
2023/01/13 06:54:59;;;;;;;;;;;;;;;0.42;78.08;92683.91;2065038;69;20088;-82
2023/01/13 06:57:25;;;;;;;;;;;;;;;0.60;77.55;92665.53;2067831;69;20159;-81
2023/01/13 06:59:50;;;;;;;;;;;;;;;0.58;76.89;92659.78;2068398;69;20053;-81
2023/01/13 07:02:16;;;;;;;;;;;;;;;0.61;77.22;92642.09;2068428;69;20152;-79
2023/01/13 07:04:43;;;;;;;;;;;;;;;0.66;77.04;92641.91;2068343;69;20531;-80
2023/01/13 07:07:08;;;;;;;;;;;;;;;0.73;76.81;92646.00;2068406;69;20049;-77
2023/01/13 07:09:34;;;;;;;;;;;;;;;0.72;76.66;92645.25;2068097;69;20048;-79
2023/01/13 07:11:59;;;;;;;;;;;;;;;0.54;77.99;92662.91;2068374;69;20390;-79
2023/01/13 07:17:09;;;;;;;;;;;;;;;0.08;80.34;92679.25;2068296;69;20048;-76
2023/01/13 07:19:34;;;;;;;;;;;;;;;0.27;79.50;92675.50;2068302;69;20049;-75
2023/01/13 07:22:00;;;;;;;;;;;;;;;0.38;79.42;92678.72;2068350;69;20044;-77
2023/01/13 07:24:25;;;;;;;;;;;;;;;0.49;78.82;92675.63;2068210;69;20412;-74
2023/01/13 07:26:51;;;;;;;;;;;;;;;0.63;78.39;92676.25;2068439;69;20401;-74
2023/01/13 07:29:17;;;;;;;;;;;;;;;0.82;77.84;92661.38;2068368;69;20479;-75
2023/01/13 07:31:42;;;;;;;;;;;;;;;0.85;77.66;92660.28;2068221;69;20055;-73
2023/01/13 07:34:08;;;;;;;;;;;;;;;0.89;77.21;92661.41;2068297;69;20059;-73
2023/01/13 07:36:34;;;;;;;;;;;;;;;0.75;78.01;92679.47;2068322;69;20044;-76
2023/01/13 07:38:59;;;;;;;;;;;;;;;0.88;77.51;92662.69;2068011;69;20140;-74
2023/01/13 07:44:09;;;;;;;;;;;;;;;1.07;76.77;92661.66;2068435;69;20084;-76
2023/01/13 07:46:35;;;;;;;;;;;;;;;1.19;76.75;92665.53;2068272;69;20121;-73
2023/01/13 07:49:01;;;;;;;;;;;;;;;0.82;77.62;92680.75;2068230;69;20144;-78
2023/01/13 07:51:27;;;;;;;;;;;;;;;0.93;77.86;92683.97;2064974;69;20130;-77
2023/01/13 07:53:52;;;;;;;;;;;;;;;1.21;76.93;92685.91;2064789;69;20037;-75
2023/01/13 07:56:18;;;;;;;;;;;;;;;1.17;77.20;92679.97;2068185;69;20465;-76
2023/01/13 07:58:49;;;;;;;;;;;;;;;1.06;76.88;92677.53;2068280;69;20041;-72
2023/01/13 08:01:15;;;;;;;;;;;;;;;1.08;77.76;92663.13;2068466;69;20139;-74
2023/01/13 08:03:41;;;;;;;;;;;;;;;1.25;77.20;92661.31;2068485;69;20404;-72
2023/01/13 08:06:07;;;;;;;;;;;;;;;0.86;78.23;92675.63;2068261;69;20057;-78
2023/01/13 08:08:32;;;;;;;;;;;;;;;1.21;77.70;92679.63;2068392;69;20109;-75
2023/01/13 08:11:01;;;;;;;;;;;;;;;1.31;77.13;92697.19;2068924;69;20549;-72
2023/01/13 08:13:27;;;;;;;;;;;;;;;1.42;76.93;92698.88;2068970;69;20067;-78
2023/01/13 08:15:57;;;;;;;;;;;;;;;1.44;76.64;92696.31;2068820;69;20049;-76
2023/01/13 08:18:23;;;;;;;;;;;;;;;1.29;77.01;92699.06;2068663;69;20041;-79
2023/01/13 08:20:51;;;;;;;;;;;;;;;1.21;77.33;92699.75;2068677;69;20048;-74
2023/01/13 08:23:17;;;;;;;;;;;;;;;1.07;78.59;92708.78;2068589;69;20460;-79
2023/01/13 08:25:42;;;;;;;;;;;;;;;1.30;78.03;92709.59;2065417;69;20049;-75
2023/01/13 08:28:08;;;;;;;;;;;;;;;1.48;77.50;92691.16;2068759;69;20055;-77
2023/01/13 08:30:33;;;;;;;;;;;;;;;1.23;77.24;92691.63;2068781;69;20473;-77
2023/01/13 08:32:58;;;;;;;;;;;;;;;1.40;77.37;92685.56;2068815;69;20044;-72
2023/01/13 08:35:24;;;;;;;;;;;;;;;1.80;76.26;92679.53;2068868;69;20053;-73
2023/01/13 08:37:50;;;;;;;;;;;;;;;1.95;75.62;92673.97;2068770;69;20140;-74
2023/01/13 08:40:17;;;;;;;;;;;;;;;2.09;75.60;92676.56;2068887;69;20438;-72
2023/01/13 08:42:42;;;;;;;;;;;;;;;2.00;76.03;92677.84;2068764;69;20097;-73
2023/01/13 08:45:09;;;;;;;;;;;;;;;1.94;75.72;92683.59;2065403;69;20560;-81
2023/01/13 08:47:34;;;;;;;;;;;;;;;2.23;75.11;92691.72;2065436;69;20205;-76
2023/01/13 08:50:00;;;;;;;;;;;;;;;2.06;75.07;92694.31;2065403;69;20127;-76
2023/01/13 08:52:26;;;;;;;;;;;;;;;1.70;76.92;92695.25;2068752;69;20051;-76
2023/01/13 08:54:51;;;;;;;;;;;;;;;2.26;75.98;92698.94;2068470;69;20129;-75
2023/01/13 08:57:19;;;;;;;;;;;;;;;1.94;75.87;92699.50;2068676;69;20164;-75
2023/01/13 08:59:45;;;;;;;;;;;;;;;2.32;75.78;92693.94;2068669;69;20056;-79
2023/01/13 09:02:15;;;;;;;;;;;;;;;2.40;75.17;92691.88;2068679;69;20397;-75
2023/01/13 09:04:41;;;;;;;;;;;;;;;2.53;74.42;92683.34;2068617;69;20144;-79
2023/01/13 09:07:06;;;;;;;;;;;;;;;2.82;73.66;92685.13;2068689;69;20519;-75
2023/01/13 09:09:32;;;;;;;;;;;;;;;2.87;74.01;92671.00;2068533;69;20056;-73
2023/01/13 09:14:41;;;;;;;;;;;;;;;2.68;73.85;92673.47;2068938;69;20048;-74
2023/01/13 09:17:07;;;;;;;;;;;;;;;2.80;73.59;92664.19;2065157;69;20049;-76
2023/01/13 09:19:32;;;;;;;;;;;;;;;2.95;73.31;92671.72;2068379;69;20114;-78
2023/01/13 09:21:58;;;;;;;;;;;;;;;2.91;73.12;92659.50;2068768;69;20136;-78
2023/01/13 09:24:24;;;;;;;;;;;;;;;3.12;73.13;92662.75;2065163;69;20139;-76
2023/01/13 09:26:49;;;;;;;;;;;;;;;3.17;72.80;92659.03;2068512;69;20514;-77
2023/01/13 09:29:15;;;;;;;;;;;;;;;3.22;73.34;92652.50;2068537;69;20048;-80
2023/01/13 09:31:41;;;;;;;;;;;;;;;3.27;73.32;92651.53;2068630;69;20401;-80
2023/01/13 09:36:53;;;;;;;;;;;;;;;3.05;74.10;92644.78;2068587;69;20433;-78
2023/01/13 09:39:19;;;;;;;;;;;;;;;3.31;72.78;92640.75;2068103;69;20104;-74
2023/01/13 09:44:54;;;;;;;;;;;;;;;2.88;73.99;92655.06;2068668;69;20114;-74
2023/01/13 09:47:26;;;;;;;;;;;;;;;3.13;73.32;92653.09;2068643;69;20497;-78
2023/01/13 09:49:54;;;;;;;;;;;;;;;3.08;72.57;92661.66;2068766;69;20044;-75
2023/01/13 09:52:24;;;;;;;;;;;;;;;2.97;73.96;92660.03;2068652;69;20075;-76
2023/01/13 09:55:02;;;;;;;;;;;;;;;3.31;72.86;92665.81;2068469;69;20044;-79
2023/01/13 09:57:31;;;;;;;;;;;;;;;3.54;72.45;92645.47;2068524;69;20068;-76
2023/01/13 09:59:57;;;;;;;;;;;;;;;3.17;71.60;92631.22;2068504;69;20136;-79
2023/01/13 10:02:22;;;;;;;;;;;;;;;3.41;71.58;92621.41;2068400;69;20055;-81
2023/01/13 10:05:03;;;;;;;;;;;;;;;4.25;72.00;92620.00;2068424;69;20081;-83
2023/01/13 10:07:30;;;;;;;;;;;;;;;4.31;70.62;92618.47;2068453;69;20088;-74
2023/01/13 10:09:57;;;;;;;;;;;;;;;4.83;70.02;92607.28;2068318;69;20052;-75
2023/01/13 10:15:21;;;;;;;;;;;;;;;5.06;70.63;92636.97;2068442;69;20049;-83
2023/01/13 10:18:09;;;;;;;;;;;;;;;5.75;67.97;92622.81;2068522;69;20077;-84
2023/01/13 10:21:01;;;;;;;;;;;;;;;6.45;65.06;92611.25;2068458;69;20053;-83
2023/01/13 10:23:49;;;;;;;;;;;;;;;6.96;65.01;92606.56;2064084;69;20140;-84
2023/01/13 10:26:24;;;;;;;;;;;;;;;6.47;61.20;92597.44;2066979;69;20132;-77
2023/01/13 10:28:50;;;;;;;;;;;;;;;6.61;62.23;92598.50;2068343;69;20045;-80
2023/01/13 10:31:18;;;;;;;;;;;;;;;7.63;61.60;92586.13;2067992;69;20056;-80
2023/01/13 10:33:46;;;;;;;;;;;;;;;8.09;58.17;92577.38;2068351;69;20057;-74
2023/01/13 10:36:16;;;;;;;;;;;;;;;8.12;56.05;92564.22;2065088;69;20137;-74
2023/01/13 10:38:43;;;;;;;;;;;;;;;7.81;55.93;92553.03;2068095;69;20056;-81
2023/01/13 10:41:15;;;;;;;;;;;;;;;7.49;59.06;92537.53;2068181;69;20041;-79
2023/01/13 10:43:44;;;;;;;;;;;;;;;9.31;57.53;92550.94;2068225;69;20135;-76
2023/01/13 10:46:11;;;;;;;;;;;;;;;10.07;55.24;92555.53;2068188;69;20473;-73
2023/01/13 10:48:54;;;;;;;;;;;;;;;9.67;51.02;92548.91;2068352;69;20060;-78
2023/01/13 10:51:20;;;;;;;;;;;;;;;9.68;50.21;92562.34;2068518;69;20053;-80
2023/01/13 10:53:53;;;;;;;;;;;;;;;9.18;50.43;92554.31;2068326;69;20049;-80
2023/01/13 10:56:19;;;;;;;;;;;;;;;10.41;52.26;92549.19;2065197;69;20092;-75
2023/01/13 10:58:45;;;;;;;;;;;;;;;9.96;49.86;92561.91;2065254;69;20420;-77
2023/01/13 11:01:29;;;;;;;;;;;;;;;8.55;52.76;92555.88;2065223;69;20477;-80
2023/01/13 11:03:54;;;;;;;;;;;;;;;9.08;54.48;92550.84;2068610;69;20044;-75
2023/01/13 11:06:24;;;;;;;;;;;;;;;10.65;51.26;92535.78;2065125;69;20052;-82
2023/01/13 11:08:51;;;;;;;;;;;;;;;12.18;50.08;92530.03;2064973;69;20111;-83
2023/01/13 11:11:40;;;;;;;;;;;;;;;13.88;46.65;92530.59;2068463;69;20041;-82
2023/01/13 11:16:56;;;;;;;;;;;;;;;15.60;39.12;92501.72;2068649;69;20496;-77
2023/01/13 11:19:23;;;;;;;;;;;;;;;14.36;38.34;92502.25;2068364;69;20045;-76
2023/01/13 11:22:06;;;;;;;;;;;;;;;15.66;39.58;92487.06;2068399;69;20124;-79
2023/01/13 11:24:41;;;;;;;;;;;;;;;15.25;42.18;92497.50;2068263;69;20432;-78
2023/01/13 11:27:18;;;;;;;;;;;;;;;18.11;37.79;92478.34;2068430;69;20049;-77
2023/01/13 11:29:44;;;;;;;;;;;;;;;16.28;35.35;92487.97;2068325;69;20053;-76
2023/01/13 11:32:11;;;;;;;;;;;;;;;17.13;36.71;92498.75;2064942;69;20051;-74
2023/01/13 11:34:39;;;;;;;;;;;;;;;16.26;36.06;92468.00;2068323;69;20185;-78
2023/01/13 11:37:39;;;;;;;;;;;;;;;15.02;36.51;92483.81;2068583;69;20118;-80
2023/01/13 11:40:11;;;;;;;;;;;;;;;13.58;40.06;92512.19;2057393;69;20146;-74
2023/01/13 11:42:42;;;;;;;;;;;;;;;13.13;40.62;92499.47;2054981;69;20073;-76
2023/01/13 11:45:20;;;;;;;;;;;;;;;11.49;43.52;92515.06;2057984;69;20073;-78
2023/01/13 11:47:47;;;;;;;;;;;;;;;11.84;44.18;92503.59;2058054;69;20544;-82
2023/01/13 11:50:19;;;;;;;;;;;;;;;11.69;44.03;92499.25;2058026;69;20050;-76
2023/01/13 11:52:44;;;;;;;;;;;;;;;11.25;44.74;92497.56;2058120;69;20183;-78
2023/01/13 11:55:15;;;;;;;;;;;;;;;11.14;44.59;92473.75;2057777;69;20490;-78
2023/01/13 11:57:49;;;;;;;;;;;;;;;11.61;44.05;92469.91;2056655;69;20112;-80
2023/01/13 12:00:15;;;;;;;;;;;;;;;11.18;44.43;92468.34;2054387;69;20049;-78
2023/01/13 12:02:52;;;;;;;;;;;;;;;10.94;41.40;92464.16;2054651;69;20568;-82
2023/01/13 12:05:24;;;;;;;;;;;;;;;11.11;42.54;92469.34;2054765;70;20608;-77
2023/01/13 12:07:52;;;;;;;;;;;;;;;10.52;45.08;92466.06;2054717;69;20152;-82
2023/01/13 12:10:17;;;;;;;;;;;;;;;8.32;50.15;92456.19;2054680;70;20137;-79
2023/01/13 12:12:46;;;;;;;;;;;;;;;9.36;49.65;92447.97;2054518;70;20058;-84
2023/01/13 12:15:24;;;;;;;;;;;;;;;9.98;48.00;92444.63;2068186;69;20045;-78
2023/01/13 12:18:08;;;;;;;;;;;;;;;10.19;47.47;92444.47;2068721;69;20055;-78
2023/01/13 12:20:42;;;;;;;;;;;;;;;10.25;48.15;92437.75;2068623;69;20051;-79
2023/01/13 12:23:21;;;;;;;;;;;;;;;9.73;48.11;92448.09;2068504;69;20041;-79
2023/01/13 12:25:51;;;;;;;;;;;;;;;9.95;48.07;92448.69;2068518;69;20088;-75
2023/01/13 12:28:20;;;;;;;;;;;;;;;9.25;49.04;92463.44;2068487;69;20056;-75
2023/01/13 12:30:58;;;;;;;;;;;;;;;9.27;49.48;92468.47;2068675;69;20052;-76
2023/01/13 12:33:26;;;;;;;;;;;;;;;9.66;48.39;92472.28;2068576;69;20091;-76
2023/01/13 12:36:03;;;;;;;;;;;;;;;10.11;48.33;92474.19;2065308;69;20412;-74
2023/01/13 12:38:35;;;;;;;;;;;;;;;10.06;47.42;92469.69;2068507;69;20477;-75
2023/01/13 12:41:00;;;;;;;;;;;;;;;9.72;48.01;92462.75;2068668;69;20144;-75
2023/01/13 12:46:22;;;;;;;;;;;;;;;9.96;47.55;92467.00;2068681;69;20044;-77
2023/01/13 12:48:53;;;;;;;;;;;;;;;10.04;48.12;92436.56;2068851;69;20120;-77
2023/01/13 12:51:23;;;;;;;;;;;;;;;9.58;48.65;92442.97;2068888;69;20071;-79
2023/01/13 12:53:49;;;;;;;;;;;;;;;9.12;48.75;92447.94;2068443;69;20465;-75
2023/01/13 12:56:26;;;;;;;;;;;;;;;9.31;47.06;92452.59;2069032;69;20049;-77
2023/01/13 12:59:12;;;;;;;;;;;;;;;8.44;50.34;92458.34;2065424;69;20243;-74
2023/01/13 13:01:37;;;;;;;;;;;;;;;8.91;50.82;92462.78;2068507;69;20512;-77
2023/01/13 13:04:15;;;;;;;;;;;;;;;9.15;50.15;92466.38;2069840;69;20073;-79
2023/01/13 13:06:44;;;;;;;;;;;;;;;8.75;50.07;92469.44;2068639;69;20090;-79
2023/01/13 13:09:18;;;;;;;;;;;;;;;8.50;50.70;92490.34;2068447;69;20060;-73
2023/01/13 13:14:36;;;;;;;;;;;;;;;8.78;50.96;92494.22;2065290;69;20048;-75
2023/01/13 13:17:01;;;;;;;;;;;;;;;8.20;52.74;92499.53;2065381;69;20052;-74
2023/01/13 13:19:30;;;;;;;;;;;;;;;7.82;54.14;92509.66;2068716;69;20517;-73
2023/01/13 13:22:22;;;;;;;;;;;;;;;7.20;55.01;92509.63;2068709;69;20091;-74
2023/01/13 13:24:47;;;;;;;;;;;;;;;7.38;55.59;92510.88;2063107;69;20073;-73
2023/01/13 13:27:25;;;;;;;;;;;;;;;7.93;53.99;92511.06;2068661;69;20041;-73
2023/01/13 13:30:00;;;;;;;;;;;;;;;7.46;54.11;92513.50;2065436;69;20045;-73
2023/01/13 13:32:26;;;;;;;;;;;;;;;7.80;53.64;92513.06;2061948;69;20045;-75
2023/01/13 13:34:51;;;;;;;;;;;;;;;7.82;54.02;92507.56;2061839;69;20095;-74
2023/01/13 13:37:32;;;;;;;;;;;;;;;8.11;54.02;92501.81;2061909;69;20497;-72
2023/01/13 13:48:33;;;;;;;;;;;;;;;8.09;54.59;92484.09;2061316;69;20069;-74
2023/01/13 13:51:04;;;;;;;;;;;;;;;8.10;53.50;92485.56;2061850;69;20220;-77
2023/01/13 13:53:39;;;;;;;;;;;;;;;8.04;53.71;92479.56;2061717;69;20053;-76
2023/01/13 13:56:13;;;;;;;;;;;;;;;8.06;54.93;92474.84;2061876;69;20046;-75
2023/01/13 13:58:42;;;;;;;;;;;;;;;8.17;55.17;92481.13;2061968;69;20170;-74
2023/01/13 14:01:19;;;;;;;;;;;;;;;8.14;54.96;92486.56;2061751;69;20083;-76
2023/01/13 14:03:45;;;;;;;;;;;;;;;8.19;56.02;92486.84;2061272;69;20552;-78
2023/01/13 14:06:20;;;;;;;;;;;;;;;8.24;55.79;92471.75;2061801;69;20049;-80